sensor_id;sensor_type;location;lat;lon;timestamp;P1;durP1;ratioP1;P2;durP2;ratioP2
59587;SDS011;45412;54.472;18.464;2022-12-05T00:03:02;21.70;;;9.90;;
59587;SDS011;45412;54.472;18.464;2022-12-05T00:05:50;21.40;;;9.70;;
59587;SDS011;45412;54.472;18.464;2022-12-05T00:08:38;17.90;;;8.30;;
59587;SDS011;45412;54.472;18.464;2022-12-05T00:11:30;23.00;;;10.60;;
59587;SDS011;45412;54.472;18.464;2022-12-05T00:14:19;21.80;;;9.80;;
59587;SDS011;45412;54.472;18.464;2022-12-05T00:17:06;21.00;;;9.60;;
59587;SDS011;45412;54.472;18.464;2022-12-05T00:19:54;20.70;;;9.30;;
59587;SDS011;45412;54.472;18.464;2022-12-05T00:22:43;18.40;;;8.90;;
59587;SDS011;45412;54.472;18.464;2022-12-05T00:25:31;21.90;;;10.90;;
59587;SDS011;45412;54.472;18.464;2022-12-05T00:28:18;26.40;;;11.90;;
59587;SDS011;45412;54.472;18.464;2022-12-05T00:31:11;19.80;;;8.90;;
59587;SDS011;45412;54.472;18.464;2022-12-05T00:34:02;20.70;;;9.40;;
59587;SDS011;45412;54.472;18.464;2022-12-05T00:36:50;23.10;;;11.60;;
59587;SDS011;45412;54.472;18.464;2022-12-05T00:39:37;24.70;;;11.10;;
59587;SDS011;45412;54.472;18.464;2022-12-05T00:42:25;26.10;;;12.20;;
59587;SDS011;45412;54.472;18.464;2022-12-05T00:45:13;25.00;;;10.90;;
59587;SDS011;45412;54.472;18.464;2022-12-05T00:48:01;24.80;;;12.50;;
59587;SDS011;45412;54.472;18.464;2022-12-05T00:50:48;24.50;;;10.80;;
59587;SDS011;45412;54.472;18.464;2022-12-05T00:53:36;24.00;;;11.80;;
59587;SDS011;45412;54.472;18.464;2022-12-05T00:56:25;20.80;;;10.80;;
59587;SDS011;45412;54.472;18.464;2022-12-05T00:59:15;24.70;;;11.90;;
59587;SDS011;45412;54.472;18.464;2022-12-05T01:02:04;24.60;;;10.50;;
59587;SDS011;45412;54.472;18.464;2022-12-05T01:04:52;27.10;;;12.30;;
59587;SDS011;45412;54.472;18.464;2022-12-05T01:07:39;24.60;;;11.50;;
59587;SDS011;45412;54.472;18.464;2022-12-05T01:10:27;23.80;;;11.10;;
59587;SDS011;45412;54.472;18.464;2022-12-05T01:13:15;27.10;;;12.20;;
59587;SDS011;45412;54.472;18.464;2022-12-05T01:16:03;24.60;;;11.70;;
59587;SDS011;45412;54.472;18.464;2022-12-05T01:18:51;24.60;;;12.30;;
59587;SDS011;45412;54.472;18.464;2022-12-05T01:21:39;27.30;;;13.10;;
59587;SDS011;45412;54.472;18.464;2022-12-05T01:24:28;24.90;;;11.10;;
59587;SDS011;45412;54.472;18.464;2022-12-05T01:27:16;28.20;;;12.70;;
59587;SDS011;45412;54.472;18.464;2022-12-05T01:30:04;29.60;;;13.50;;
59587;SDS011;45412;54.472;18.464;2022-12-05T01:32:52;27.60;;;12.70;;
59587;SDS011;45412;54.472;18.464;2022-12-05T01:35:41;27.50;;;12.20;;
59587;SDS011;45412;54.472;18.464;2022-12-05T01:38:29;27.50;;;12.50;;
59587;SDS011;45412;54.472;18.464;2022-12-05T01:41:29;23.00;;;11.20;;
59587;SDS011;45412;54.472;18.464;2022-12-05T01:47:15;23.90;;;11.40;;
59587;SDS011;45412;54.472;18.464;2022-12-05T01:50:05;26.50;;;11.40;;
59587;SDS011;45412;54.472;18.464;2022-12-05T01:52:55;23.10;;;10.90;;
59587;SDS011;45412;54.472;18.464;2022-12-05T01:55:43;24.30;;;11.60;;
59587;SDS011;45412;54.472;18.464;2022-12-05T01:58:35;22.10;;;10.40;;
59587;SDS011;45412;54.472;18.464;2022-12-05T02:01:24;24.90;;;10.50;;
59587;SDS011;45412;54.472;18.464;2022-12-05T02:04:12;21.20;;;9.40;;
59587;SDS011;45412;54.472;18.464;2022-12-05T02:07:00;29.10;;;12.30;;
59587;SDS011;45412;54.472;18.464;2022-12-05T02:09:48;27.40;;;12.50;;
59587;SDS011;45412;54.472;18.464;2022-12-05T02:12:37;27.60;;;13.00;;
59587;SDS011;45412;54.472;18.464;2022-12-05T02:15:32;24.20;;;11.90;;
59587;SDS011;45412;54.472;18.464;2022-12-05T02:18:54;25.00;;;11.70;;
59587;SDS011;45412;54.472;18.464;2022-12-05T02:22:19;26.10;;;11.90;;
59587;SDS011;45412;54.472;18.464;2022-12-05T02:25:52;25.60;;;11.50;;
59587;SDS011;45412;54.472;18.464;2022-12-05T02:32:37;22.40;;;10.70;;
59587;SDS011;45412;54.472;18.464;2022-12-05T02:35:53;25.90;;;13.00;;
59587;SDS011;45412;54.472;18.464;2022-12-05T02:38:59;24.40;;;10.90;;
59587;SDS011;45412;54.472;18.464;2022-12-05T02:42:02;21.70;;;8.90;;
59587;SDS011;45412;54.472;18.464;2022-12-05T02:45:04;22.60;;;9.90;;
59587;SDS011;45412;54.472;18.464;2022-12-05T02:47:56;17.50;;;8.80;;
59587;SDS011;45412;54.472;18.464;2022-12-05T02:50:46;22.60;;;11.30;;
59587;SDS011;45412;54.472;18.464;2022-12-05T02:53:36;24.80;;;12.40;;
59587;SDS011;45412;54.472;18.464;2022-12-05T02:56:25;27.30;;;12.30;;
59587;SDS011;45412;54.472;18.464;2022-12-05T02:59:16;25.60;;;12.90;;
59587;SDS011;45412;54.472;18.464;2022-12-05T03:05:40;24.70;;;11.80;;
59587;SDS011;45412;54.472;18.464;2022-12-05T03:08:57;26.60;;;12.40;;
59587;SDS011;45412;54.472;18.464;2022-12-05T03:11:57;18.40;;;8.10;;
59587;SDS011;45412;54.472;18.464;2022-12-05T03:14:55;26.50;;;12.40;;
59587;SDS011;45412;54.472;18.464;2022-12-05T03:17:53;24.90;;;12.90;;
59587;SDS011;45412;54.472;18.464;2022-12-05T03:24:12;22.40;;;12.70;;
59587;SDS011;45412;54.472;18.464;2022-12-05T03:30:18;25.40;;;12.90;;
59587;SDS011;45412;54.472;18.464;2022-12-05T03:33:17;26.60;;;12.50;;
59587;SDS011;45412;54.472;18.464;2022-12-05T03:36:18;25.80;;;12.30;;
59587;SDS011;45412;54.472;18.464;2022-12-05T03:42:32;20.30;;;9.90;;
59587;SDS011;45412;54.472;18.464;2022-12-05T03:45:27;27.00;;;10.70;;
59587;SDS011;45412;54.472;18.464;2022-12-05T03:48:42;25.60;;;10.70;;
59587;SDS011;45412;54.472;18.464;2022-12-05T03:51:37;22.30;;;10.10;;
59587;SDS011;45412;54.472;18.464;2022-12-05T03:57:44;23.80;;;11.20;;
59587;SDS011;45412;54.472;18.464;2022-12-05T04:00:38;22.10;;;9.60;;
59587;SDS011;45412;54.472;18.464;2022-12-05T04:03:43;24.50;;;11.30;;
59587;SDS011;45412;54.472;18.464;2022-12-05T04:06:38;24.60;;;12.20;;
59587;SDS011;45412;54.472;18.464;2022-12-05T04:09:38;23.90;;;10.80;;
59587;SDS011;45412;54.472;18.464;2022-12-05T04:12:31;25.00;;;11.60;;
59587;SDS011;45412;54.472;18.464;2022-12-05T04:15:27;25.40;;;12.00;;
59587;SDS011;45412;54.472;18.464;2022-12-05T04:18:38;26.40;;;12.40;;
59587;SDS011;45412;54.472;18.464;2022-12-05T04:21:36;23.20;;;10.70;;
59587;SDS011;45412;54.472;18.464;2022-12-05T04:24:29;20.70;;;9.40;;
59587;SDS011;45412;54.472;18.464;2022-12-05T04:27:53;24.90;;;12.40;;
59587;SDS011;45412;54.472;18.464;2022-12-05T04:31:03;21.70;;;9.00;;
59587;SDS011;45412;54.472;18.464;2022-12-05T04:33:59;19.80;;;8.00;;
59587;SDS011;45412;54.472;18.464;2022-12-05T04:36:54;28.30;;;13.10;;
59587;SDS011;45412;54.472;18.464;2022-12-05T04:39:53;21.10;;;10.40;;
59587;SDS011;45412;54.472;18.464;2022-12-05T04:42:46;25.00;;;11.60;;
59587;SDS011;45412;54.472;18.464;2022-12-05T04:45:37;26.20;;;10.90;;
59587;SDS011;45412;54.472;18.464;2022-12-05T04:48:27;27.90;;;12.60;;
59587;SDS011;45412;54.472;18.464;2022-12-05T04:51:18;24.00;;;11.80;;
59587;SDS011;45412;54.472;18.464;2022-12-05T04:54:19;24.60;;;11.70;;
59587;SDS011;45412;54.472;18.464;2022-12-05T04:57:26;25.80;;;12.60;;
59587;SDS011;45412;54.472;18.464;2022-12-05T05:00:20;27.80;;;12.20;;
59587;SDS011;45412;54.472;18.464;2022-12-05T05:03:14;27.00;;;12.30;;
59587;SDS011;45412;54.472;18.464;2022-12-05T05:06:09;31.50;;;13.90;;
59587;SDS011;45412;54.472;18.464;2022-12-05T05:08:58;29.20;;;13.50;;
59587;SDS011;45412;54.472;18.464;2022-12-05T05:11:47;23.80;;;11.70;;
59587;SDS011;45412;54.472;18.464;2022-12-05T05:14:35;22.20;;;10.30;;
59587;SDS011;45412;54.472;18.464;2022-12-05T05:17:23;28.60;;;13.40;;
59587;SDS011;45412;54.472;18.464;2022-12-05T05:20:11;31.70;;;14.30;;
59587;SDS011;45412;54.472;18.464;2022-12-05T05:23:11;21.60;;;9.40;;
59587;SDS011;45412;54.472;18.464;2022-12-05T05:25:59;25.90;;;12.60;;
59587;SDS011;45412;54.472;18.464;2022-12-05T05:28:47;28.10;;;12.40;;
59587;SDS011;45412;54.472;18.464;2022-12-05T05:31:37;25.90;;;13.20;;
59587;SDS011;45412;54.472;18.464;2022-12-05T05:34:26;26.00;;;12.10;;
59587;SDS011;45412;54.472;18.464;2022-12-05T05:37:14;25.50;;;11.60;;
59587;SDS011;45412;54.472;18.464;2022-12-05T05:40:04;25.60;;;12.20;;
59587;SDS011;45412;54.472;18.464;2022-12-05T05:42:57;25.20;;;12.20;;
59587;SDS011;45412;54.472;18.464;2022-12-05T05:45:45;26.30;;;11.60;;
59587;SDS011;45412;54.472;18.464;2022-12-05T05:48:33;24.20;;;11.30;;
59587;SDS011;45412;54.472;18.464;2022-12-05T05:51:22;30.10;;;13.20;;
59587;SDS011;45412;54.472;18.464;2022-12-05T05:54:13;24.60;;;10.90;;
59587;SDS011;45412;54.472;18.464;2022-12-05T05:57:01;30.00;;;12.90;;
59587;SDS011;45412;54.472;18.464;2022-12-05T05:59:49;26.00;;;12.30;;
59587;SDS011;45412;54.472;18.464;2022-12-05T06:02:36;24.50;;;11.70;;
59587;SDS011;45412;54.472;18.464;2022-12-05T06:05:24;25.40;;;11.80;;
59587;SDS011;45412;54.472;18.464;2022-12-05T06:08:17;24.70;;;11.70;;
59587;SDS011;45412;54.472;18.464;2022-12-05T06:11:19;28.30;;;13.10;;
59587;SDS011;45412;54.472;18.464;2022-12-05T06:14:13;26.50;;;11.50;;
59587;SDS011;45412;54.472;18.464;2022-12-05T06:17:00;21.60;;;11.00;;
59587;SDS011;45412;54.472;18.464;2022-12-05T06:19:50;21.70;;;10.30;;
59587;SDS011;45412;54.472;18.464;2022-12-05T06:22:38;22.30;;;10.90;;
59587;SDS011;45412;54.472;18.464;2022-12-05T06:25:26;23.40;;;9.50;;
59587;SDS011;45412;54.472;18.464;2022-12-05T06:28:14;24.30;;;11.80;;
59587;SDS011;45412;54.472;18.464;2022-12-05T06:31:15;27.10;;;12.90;;
59587;SDS011;45412;54.472;18.464;2022-12-05T06:34:08;25.00;;;12.30;;
59587;SDS011;45412;54.472;18.464;2022-12-05T06:36:56;26.40;;;10.80;;
59587;SDS011;45412;54.472;18.464;2022-12-05T06:39:44;21.40;;;9.90;;
59587;SDS011;45412;54.472;18.464;2022-12-05T06:42:31;22.00;;;10.70;;
59587;SDS011;45412;54.472;18.464;2022-12-05T06:45:19;19.60;;;8.70;;
59587;SDS011;45412;54.472;18.464;2022-12-05T06:48:07;22.80;;;9.40;;
59587;SDS011;45412;54.472;18.464;2022-12-05T06:50:55;24.80;;;11.90;;
59587;SDS011;45412;54.472;18.464;2022-12-05T06:53:42;22.50;;;10.10;;
59587;SDS011;45412;54.472;18.464;2022-12-05T06:56:30;20.60;;;9.10;;
59587;SDS011;45412;54.472;18.464;2022-12-05T06:59:18;24.30;;;11.70;;
59587;SDS011;45412;54.472;18.464;2022-12-05T07:02:06;22.70;;;10.30;;
59587;SDS011;45412;54.472;18.464;2022-12-05T07:04:54;18.90;;;8.20;;
59587;SDS011;45412;54.472;18.464;2022-12-05T07:07:42;24.90;;;10.80;;
59587;SDS011;45412;54.472;18.464;2022-12-05T07:10:30;22.40;;;9.40;;
59587;SDS011;45412;54.472;18.464;2022-12-05T07:13:17;22.60;;;10.50;;
59587;SDS011;45412;54.472;18.464;2022-12-05T07:16:05;22.30;;;10.40;;
59587;SDS011;45412;54.472;18.464;2022-12-05T07:18:53;24.00;;;11.00;;
59587;SDS011;45412;54.472;18.464;2022-12-05T07:21:41;19.90;;;9.20;;
59587;SDS011;45412;54.472;18.464;2022-12-05T07:24:29;26.60;;;12.20;;
59587;SDS011;45412;54.472;18.464;2022-12-05T07:27:16;24.50;;;10.60;;
59587;SDS011;45412;54.472;18.464;2022-12-05T07:30:12;23.70;;;10.90;;
59587;SDS011;45412;54.472;18.464;2022-12-05T07:33:00;26.00;;;10.60;;
59587;SDS011;45412;54.472;18.464;2022-12-05T07:35:48;23.80;;;11.20;;
59587;SDS011;45412;54.472;18.464;2022-12-05T07:38:36;29.50;;;12.20;;
59587;SDS011;45412;54.472;18.464;2022-12-05T07:41:26;28.30;;;12.90;;
59587;SDS011;45412;54.472;18.464;2022-12-05T07:44:16;25.60;;;12.60;;
59587;SDS011;45412;54.472;18.464;2022-12-05T07:47:03;29.80;;;11.10;;
59587;SDS011;45412;54.472;18.464;2022-12-05T07:49:50;33.00;;;13.60;;
59587;SDS011;45412;54.472;18.464;2022-12-05T07:52:38;29.70;;;12.70;;
59587;SDS011;45412;54.472;18.464;2022-12-05T07:55:26;28.40;;;12.30;;
59587;SDS011;45412;54.472;18.464;2022-12-05T07:58:13;28.90;;;12.50;;
59587;SDS011;45412;54.472;18.464;2022-12-05T08:01:24;27.20;;;11.40;;
59587;SDS011;45412;54.472;18.464;2022-12-05T08:04:13;24.80;;;12.10;;
59587;SDS011;45412;54.472;18.464;2022-12-05T08:07:02;26.80;;;12.00;;
59587;SDS011;45412;54.472;18.464;2022-12-05T08:09:49;25.70;;;11.10;;
59587;SDS011;45412;54.472;18.464;2022-12-05T08:12:37;32.00;;;12.60;;
59587;SDS011;45412;54.472;18.464;2022-12-05T08:15:25;22.90;;;10.00;;
59587;SDS011;45412;54.472;18.464;2022-12-05T08:18:12;28.40;;;13.50;;
59587;SDS011;45412;54.472;18.464;2022-12-05T08:21:08;29.60;;;11.60;;
59587;SDS011;45412;54.472;18.464;2022-12-05T08:23:58;30.70;;;13.70;;
59587;SDS011;45412;54.472;18.464;2022-12-05T08:26:45;26.10;;;10.90;;
59587;SDS011;45412;54.472;18.464;2022-12-05T08:29:33;29.90;;;13.40;;
59587;SDS011;45412;54.472;18.464;2022-12-05T08:32:21;31.80;;;14.00;;
59587;SDS011;45412;54.472;18.464;2022-12-05T08:35:09;27.90;;;13.10;;
59587;SDS011;45412;54.472;18.464;2022-12-05T08:37:56;31.30;;;13.50;;
59587;SDS011;45412;54.472;18.464;2022-12-05T08:40:44;30.90;;;14.20;;
59587;SDS011;45412;54.472;18.464;2022-12-05T08:43:33;31.10;;;13.20;;
59587;SDS011;45412;54.472;18.464;2022-12-05T08:46:21;31.40;;;13.90;;
59587;SDS011;45412;54.472;18.464;2022-12-05T08:49:10;28.70;;;11.70;;
59587;SDS011;45412;54.472;18.464;2022-12-05T08:51:58;29.30;;;12.60;;
59587;SDS011;45412;54.472;18.464;2022-12-05T08:54:45;29.40;;;11.60;;
59587;SDS011;45412;54.472;18.464;2022-12-05T08:57:33;30.40;;;14.00;;
59587;SDS011;45412;54.472;18.464;2022-12-05T09:00:21;29.80;;;13.50;;
59587;SDS011;45412;54.472;18.464;2022-12-05T09:03:10;36.50;;;15.00;;
59587;SDS011;45412;54.472;18.464;2022-12-05T09:06:10;31.20;;;14.40;;
59587;SDS011;45412;54.472;18.464;2022-12-05T09:09:09;30.90;;;14.80;;
59587;SDS011;45412;54.472;18.464;2022-12-05T09:11:58;32.90;;;14.30;;
59587;SDS011;45412;54.472;18.464;2022-12-05T09:14:46;26.50;;;12.10;;
59587;SDS011;45412;54.472;18.464;2022-12-05T09:17:34;32.30;;;14.60;;
59587;SDS011;45412;54.472;18.464;2022-12-05T09:20:22;27.80;;;14.00;;
59587;SDS011;45412;54.472;18.464;2022-12-05T09:23:10;30.50;;;12.70;;
59587;SDS011;45412;54.472;18.464;2022-12-05T09:26:03;31.60;;;13.50;;
59587;SDS011;45412;54.472;18.464;2022-12-05T09:28:52;29.80;;;13.40;;
59587;SDS011;45412;54.472;18.464;2022-12-05T09:31:40;34.40;;;14.40;;
59587;SDS011;45412;54.472;18.464;2022-12-05T09:34:29;29.90;;;13.00;;
59587;SDS011;45412;54.472;18.464;2022-12-05T09:37:17;31.10;;;14.10;;
59587;SDS011;45412;54.472;18.464;2022-12-05T09:40:25;32.70;;;14.90;;
59587;SDS011;45412;54.472;18.464;2022-12-05T09:43:26;33.70;;;13.60;;
59587;SDS011;45412;54.472;18.464;2022-12-05T09:46:33;29.70;;;14.00;;
59587;SDS011;45412;54.472;18.464;2022-12-05T09:49:37;24.80;;;10.90;;
59587;SDS011;45412;54.472;18.464;2022-12-05T09:52:32;31.90;;;13.40;;
59587;SDS011;45412;54.472;18.464;2022-12-05T09:55:24;25.70;;;12.50;;
59587;SDS011;45412;54.472;18.464;2022-12-05T09:58:47;25.70;;;11.50;;
59587;SDS011;45412;54.472;18.464;2022-12-05T10:08:03;29.10;;;12.70;;
59587;SDS011;45412;54.472;18.464;2022-12-05T10:11:13;31.70;;;12.70;;
59587;SDS011;45412;54.472;18.464;2022-12-05T10:20:26;30.70;;;12.80;;
59587;SDS011;45412;54.472;18.464;2022-12-05T10:23:22;31.30;;;12.70;;
59587;SDS011;45412;54.472;18.464;2022-12-05T10:26:36;29.40;;;13.50;;
59587;SDS011;45412;54.472;18.464;2022-12-05T10:30:16;32.20;;;13.00;;
59587;SDS011;45412;54.472;18.464;2022-12-05T10:33:17;34.00;;;13.60;;
59587;SDS011;45412;54.472;18.464;2022-12-05T10:36:10;31.00;;;13.60;;
59587;SDS011;45412;54.472;18.464;2022-12-05T10:38:59;30.50;;;12.90;;
59587;SDS011;45412;54.472;18.464;2022-12-05T10:41:50;31.70;;;13.60;;
59587;SDS011;45412;54.472;18.464;2022-12-05T10:44:38;30.30;;;13.10;;
59587;SDS011;45412;54.472;18.464;2022-12-05T10:47:26;31.30;;;14.10;;
59587;SDS011;45412;54.472;18.464;2022-12-05T10:50:27;32.90;;;13.00;;
59587;SDS011;45412;54.472;18.464;2022-12-05T10:53:23;32.30;;;14.20;;
59587;SDS011;45412;54.472;18.464;2022-12-05T10:56:38;30.00;;;13.50;;
59587;SDS011;45412;54.472;18.464;2022-12-05T10:59:44;35.60;;;14.90;;
59587;SDS011;45412;54.472;18.464;2022-12-05T11:02:35;34.90;;;14.70;;
59587;SDS011;45412;54.472;18.464;2022-12-05T11:05:28;36.20;;;14.60;;
59587;SDS011;45412;54.472;18.464;2022-12-05T11:08:23;37.20;;;14.80;;
59587;SDS011;45412;54.472;18.464;2022-12-05T11:11:33;31.90;;;14.20;;
59587;SDS011;45412;54.472;18.464;2022-12-05T11:14:24;34.40;;;14.70;;
59587;SDS011;45412;54.472;18.464;2022-12-05T11:17:23;26.90;;;11.10;;
59587;SDS011;45412;54.472;18.464;2022-12-05T11:23:22;31.80;;;13.40;;
59587;SDS011;45412;54.472;18.464;2022-12-05T11:26:35;39.00;;;13.30;;
59587;SDS011;45412;54.472;18.464;2022-12-05T11:32:28;41.30;;;15.10;;
59587;SDS011;45412;54.472;18.464;2022-12-05T11:35:24;37.10;;;14.50;;
59587;SDS011;45412;54.472;18.464;2022-12-05T11:38:14;33.50;;;14.00;;
59587;SDS011;45412;54.472;18.464;2022-12-05T11:51:19;44.40;;;15.30;;
59587;SDS011;45412;54.472;18.464;2022-12-05T12:01:26;32.90;;;13.20;;
59587;SDS011;45412;54.472;18.464;2022-12-05T12:11:21;31.30;;;12.90;;
59587;SDS011;45412;54.472;18.464;2022-12-05T12:14:36;34.50;;;14.00;;
59587;SDS011;45412;54.472;18.464;2022-12-05T12:31:05;31.70;;;13.10;;
59587;SDS011;45412;54.472;18.464;2022-12-05T12:51:28;29.10;;;12.80;;
59587;SDS011;45412;54.472;18.464;2022-12-05T12:57:54;33.80;;;12.70;;
59587;SDS011;45412;54.472;18.464;2022-12-05T13:01:15;32.30;;;13.00;;
59587;SDS011;45412;54.472;18.464;2022-12-05T13:04:22;29.80;;;11.30;;
59587;SDS011;45412;54.472;18.464;2022-12-05T13:10:15;32.80;;;13.20;;
59587;SDS011;45412;54.472;18.464;2022-12-05T13:13:05;25.10;;;10.40;;
59587;SDS011;45412;54.472;18.464;2022-12-05T13:15:58;31.50;;;13.70;;
59587;SDS011;45412;54.472;18.464;2022-12-05T13:18:47;33.50;;;14.10;;
59587;SDS011;45412;54.472;18.464;2022-12-05T13:21:35;31.30;;;12.70;;
59587;SDS011;45412;54.472;18.464;2022-12-05T13:24:25;35.40;;;15.00;;
59587;SDS011;45412;54.472;18.464;2022-12-05T13:27:19;27.30;;;11.50;;
59587;SDS011;45412;54.472;18.464;2022-12-05T13:30:15;32.50;;;13.90;;
59587;SDS011;45412;54.472;18.464;2022-12-05T13:33:07;35.40;;;13.50;;
59587;SDS011;45412;54.472;18.464;2022-12-05T13:36:01;31.80;;;13.70;;
59587;SDS011;45412;54.472;18.464;2022-12-05T13:42:24;35.00;;;14.40;;
59587;SDS011;45412;54.472;18.464;2022-12-05T13:45:17;32.20;;;12.80;;
59587;SDS011;45412;54.472;18.464;2022-12-05T13:48:21;34.30;;;13.00;;
59587;SDS011;45412;54.472;18.464;2022-12-05T13:51:19;29.40;;;13.20;;
59587;SDS011;45412;54.472;18.464;2022-12-05T13:54:15;31.00;;;14.10;;
59587;SDS011;45412;54.472;18.464;2022-12-05T13:57:42;37.20;;;15.50;;
59587;SDS011;45412;54.472;18.464;2022-12-05T14:06:11;31.60;;;13.50;;
59587;SDS011;45412;54.472;18.464;2022-12-05T14:09:29;35.80;;;15.30;;
59587;SDS011;45412;54.472;18.464;2022-12-05T14:12:55;35.20;;;14.00;;
59587;SDS011;45412;54.472;18.464;2022-12-05T14:15:45;38.90;;;16.20;;
59587;SDS011;45412;54.472;18.464;2022-12-05T14:18:48;40.00;;;16.30;;
59587;SDS011;45412;54.472;18.464;2022-12-05T14:21:50;36.20;;;15.50;;
59587;SDS011;45412;54.472;18.464;2022-12-05T14:32:28;29.30;;;12.90;;
59587;SDS011;45412;54.472;18.464;2022-12-05T14:35:28;40.40;;;16.10;;
59587;SDS011;45412;54.472;18.464;2022-12-05T14:38:27;39.90;;;16.40;;
59587;SDS011;45412;54.472;18.464;2022-12-05T14:41:32;36.80;;;15.70;;
59587;SDS011;45412;54.472;18.464;2022-12-05T14:44:22;36.90;;;16.50;;
59587;SDS011;45412;54.472;18.464;2022-12-05T14:47:10;36.00;;;15.60;;
59587;SDS011;45412;54.472;18.464;2022-12-05T14:53:39;35.40;;;16.20;;
59587;SDS011;45412;54.472;18.464;2022-12-05T14:56:29;37.00;;;16.80;;
59587;SDS011;45412;54.472;18.464;2022-12-05T14:59:31;36.30;;;16.00;;
59587;SDS011;45412;54.472;18.464;2022-12-05T15:02:26;40.00;;;17.80;;
59587;SDS011;45412;54.472;18.464;2022-12-05T15:05:27;37.70;;;17.80;;
59587;SDS011;45412;54.472;18.464;2022-12-05T15:08:18;35.10;;;16.20;;
59587;SDS011;45412;54.472;18.464;2022-12-05T15:11:12;41.80;;;17.10;;
59587;SDS011;45412;54.472;18.464;2022-12-05T15:14:22;37.50;;;15.50;;
59587;SDS011;45412;54.472;18.464;2022-12-05T15:17:21;36.80;;;15.50;;
59587;SDS011;45412;54.472;18.464;2022-12-05T15:26:43;32.70;;;16.30;;
59587;SDS011;45412;54.472;18.464;2022-12-05T15:29:36;39.10;;;17.90;;
59587;SDS011;45412;54.472;18.464;2022-12-05T15:32:24;38.10;;;18.10;;
59587;SDS011;45412;54.472;18.464;2022-12-05T15:35:14;42.10;;;17.80;;
59587;SDS011;45412;54.472;18.464;2022-12-05T15:38:24;38.10;;;16.30;;
59587;SDS011;45412;54.472;18.464;2022-12-05T15:41:16;39.40;;;17.90;;
59587;SDS011;45412;54.472;18.464;2022-12-05T15:44:04;34.30;;;15.60;;
59587;SDS011;45412;54.472;18.464;2022-12-05T15:46:53;36.10;;;15.60;;
59587;SDS011;45412;54.472;18.464;2022-12-05T15:49:44;33.50;;;15.20;;
59587;SDS011;45412;54.472;18.464;2022-12-05T15:52:36;38.60;;;16.70;;
59587;SDS011;45412;54.472;18.464;2022-12-05T15:55:50;38.90;;;17.30;;
59587;SDS011;45412;54.472;18.464;2022-12-05T16:02:43;39.30;;;17.70;;
59587;SDS011;45412;54.472;18.464;2022-12-05T16:05:56;39.50;;;17.20;;
59587;SDS011;45412;54.472;18.464;2022-12-05T16:08:46;39.70;;;16.80;;
59587;SDS011;45412;54.472;18.464;2022-12-05T16:11:35;38.90;;;15.50;;
59587;SDS011;45412;54.472;18.464;2022-12-05T16:14:24;34.20;;;15.90;;
59587;SDS011;45412;54.472;18.464;2022-12-05T16:17:42;37.70;;;17.20;;
59587;SDS011;45412;54.472;18.464;2022-12-05T16:20:34;38.00;;;16.20;;
59587;SDS011;45412;54.472;18.464;2022-12-05T16:23:31;39.60;;;17.00;;
59587;SDS011;45412;54.472;18.464;2022-12-05T16:26:24;36.20;;;16.60;;
59587;SDS011;45412;54.472;18.464;2022-12-05T16:29:26;41.80;;;17.20;;
59587;SDS011;45412;54.472;18.464;2022-12-05T16:35:32;41.80;;;17.70;;
59587;SDS011;45412;54.472;18.464;2022-12-05T16:38:23;44.30;;;18.40;;
59587;SDS011;45412;54.472;18.464;2022-12-05T16:41:12;40.40;;;17.50;;
59587;SDS011;45412;54.472;18.464;2022-12-05T16:44:04;37.50;;;16.90;;
59587;SDS011;45412;54.472;18.464;2022-12-05T16:47:21;40.50;;;18.20;;
59587;SDS011;45412;54.472;18.464;2022-12-05T16:53:27;38.40;;;17.50;;
59587;SDS011;45412;54.472;18.464;2022-12-05T16:56:28;40.80;;;17.50;;
59587;SDS011;45412;54.472;18.464;2022-12-05T16:59:38;44.70;;;19.20;;
59587;SDS011;45412;54.472;18.464;2022-12-05T17:02:29;41.10;;;18.70;;
59587;SDS011;45412;54.472;18.464;2022-12-05T17:05:17;41.10;;;17.50;;
59587;SDS011;45412;54.472;18.464;2022-12-05T17:08:05;39.80;;;17.50;;
59587;SDS011;45412;54.472;18.464;2022-12-05T17:10:53;46.20;;;18.50;;
59587;SDS011;45412;54.472;18.464;2022-12-05T17:13:40;46.50;;;19.70;;
59587;SDS011;45412;54.472;18.464;2022-12-05T17:16:28;41.40;;;17.80;;
59587;SDS011;45412;54.472;18.464;2022-12-05T17:19:16;39.50;;;17.30;;
59587;SDS011;45412;54.472;18.464;2022-12-05T17:22:04;42.40;;;17.60;;
59587;SDS011;45412;54.472;18.464;2022-12-05T17:24:55;40.00;;;18.00;;
59587;SDS011;45412;54.472;18.464;2022-12-05T17:27:46;40.40;;;16.30;;
59587;SDS011;45412;54.472;18.464;2022-12-05T17:30:35;34.40;;;14.50;;
59587;SDS011;45412;54.472;18.464;2022-12-05T17:33:24;43.10;;;19.30;;
59587;SDS011;45412;54.472;18.464;2022-12-05T17:36:22;44.60;;;18.70;;
59587;SDS011;45412;54.472;18.464;2022-12-05T17:39:11;44.00;;;19.90;;
59587;SDS011;45412;54.472;18.464;2022-12-05T17:41:59;50.00;;;19.80;;
59587;SDS011;45412;54.472;18.464;2022-12-05T17:44:46;40.00;;;17.50;;
59587;SDS011;45412;54.472;18.464;2022-12-05T17:47:35;43.90;;;16.90;;
59587;SDS011;45412;54.472;18.464;2022-12-05T17:50:24;42.30;;;18.50;;
59587;SDS011;45412;54.472;18.464;2022-12-05T17:53:16;40.00;;;18.50;;
59587;SDS011;45412;54.472;18.464;2022-12-05T17:56:06;35.50;;;15.60;;
59587;SDS011;45412;54.472;18.464;2022-12-05T17:58:54;36.10;;;14.90;;
59587;SDS011;45412;54.472;18.464;2022-12-05T18:01:42;40.20;;;17.30;;
59587;SDS011;45412;54.472;18.464;2022-12-05T18:04:30;50.40;;;19.60;;
59587;SDS011;45412;54.472;18.464;2022-12-05T18:07:24;45.40;;;19.10;;
59587;SDS011;45412;54.472;18.464;2022-12-05T18:10:15;45.20;;;18.50;;
59587;SDS011;45412;54.472;18.464;2022-12-05T18:13:05;43.20;;;18.30;;
59587;SDS011;45412;54.472;18.464;2022-12-05T18:15:55;41.30;;;18.30;;
59587;SDS011;45412;54.472;18.464;2022-12-05T18:18:44;36.90;;;16.40;;
59587;SDS011;45412;54.472;18.464;2022-12-05T18:21:32;46.30;;;18.40;;
59587;SDS011;45412;54.472;18.464;2022-12-05T18:24:24;44.20;;;18.60;;
59587;SDS011;45412;54.472;18.464;2022-12-05T18:27:12;41.80;;;17.50;;
59587;SDS011;45412;54.472;18.464;2022-12-05T18:30:02;45.50;;;19.30;;
59587;SDS011;45412;54.472;18.464;2022-12-05T18:32:51;42.50;;;17.00;;
59587;SDS011;45412;54.472;18.464;2022-12-05T18:35:40;47.70;;;19.10;;
59587;SDS011;45412;54.472;18.464;2022-12-05T18:38:28;44.40;;;18.50;;
59587;SDS011;45412;54.472;18.464;2022-12-05T18:41:16;40.90;;;18.00;;
59587;SDS011;45412;54.472;18.464;2022-12-05T18:44:04;46.00;;;18.50;;
59587;SDS011;45412;54.472;18.464;2022-12-05T18:46:53;42.90;;;17.20;;
59587;SDS011;45412;54.472;18.464;2022-12-05T18:49:40;45.10;;;19.60;;
59587;SDS011;45412;54.472;18.464;2022-12-05T18:52:28;45.30;;;18.60;;
59587;SDS011;45412;54.472;18.464;2022-12-05T18:55:16;44.00;;;17.90;;
59587;SDS011;45412;54.472;18.464;2022-12-05T18:58:13;42.90;;;18.60;;
59587;SDS011;45412;54.472;18.464;2022-12-05T19:01:06;44.50;;;18.30;;
59587;SDS011;45412;54.472;18.464;2022-12-05T19:04:07;42.20;;;18.00;;
59587;SDS011;45412;54.472;18.464;2022-12-05T19:06:59;41.40;;;18.10;;